Details From OOMS - SEEB INTL
To OMSJ - SHARJAH INTL
Flight Number -
Tags generated
Created
Modified
Stats Distance 184 nm / 341 km
Max Altitude 16,500 ft / 5,029 m
Waypoints 3
Social Downloads 0
Likes 0
Share VATSIM

Download

Looking for another format? Having issues loading an existing format? Contact us
Advertisement - Login to hide

Notes

Basic altitude profile: - Ascent Rate: 2500ft/min - Ascent Speed: 250kts - Cruise Altitude: 35000ft - Cruise Speed: 420kts - Descent Rate: 1500ft/min - Descent Speed: 250kts Options: - Use NATs: yes - Use PACOTS: yes - Use low airways: yes - Use high airways: yes

Route

OOMS SOLUD OMSJ

ID Type Via Altitude Latitude Longitude Leg Dist Tot Dist Heading (true) Name
O OOMS APT - 0 ft / 0 m 23.59554˚ 58.29378˚ - 0 nm - SEEB INTL
SOLUD FIX - 16,500 ft / 5,029 m 24.53972˚ 56.73917˚ 102 nm 102 nm 304° / 303° -
O OMSJ APT - 0 ft / 0 m 25.32859˚ 55.51722˚ 81 nm 184 nm 306° / 305° SHARJAH INTL

Altitude Profile

Advertisement - Login to hide

Weather


0- 5 10 15 20 25 30 35+ Temperature / ° C

Clouds and Precipitation
Forecast for 2018-05-21 06:00 UTC. Updated 17 minutes ago

Ground ~20,000 ft ~40,000 ft Winds

OOMS

Details ICAO OOMS (MCT)
Name SEEB INTL
Region Oman
Timezone Asia/Muscat (UTC+4.0)
Stats Elevation 48 ft / 15 m (AMSL)
Location 23.595536° 58.293781°
Runways 2
Magnetic Variation 1.481° E

METAR

OOMS 210450Z VRB01KT CAVOK 34/20 Q1009 NOSIG

Decode

TAF

TAF TAF OOMS 202300Z 2100/2206 26006KT 9000 NSC BECMG 2105/2107 03015KT BECMG 2117/2119 21010KT BECMG 2200/2202 VRB02KT

Decode

Departure Runways

ID Width Length Bearing (true) Bearing (mag) Surface Threshold Offset Overrun Length
02 98 ft / 30 m 2,498 ft / 761 m 18.94° 17.46° Dirt 0 ft / 0 m 0 ft / 0 m
08 148 ft / 45 m 11,759 ft / 3,584 m 84.98° 83.50° Asphalt 1,375 ft / 419 m 200 ft / 61 m
20 98 ft / 30 m 2,498 ft / 761 m 198.94° 197.46° Dirt 0 ft / 0 m 0 ft / 0 m
26 148 ft / 45 m 11,759 ft / 3,584 m 264.99° 263.51° Asphalt 0 ft / 0 m 200 ft / 61 m

OMSJ

Details ICAO OMSJ (SHJ)
Name SHARJAH INTL
Region United Arab Emirates
Timezone Asia/Dubai (UTC+4.0)
Stats Elevation 111 ft / 34 m (AMSL)
Location 25.328587° 55.517218°
Runways 1
Magnetic Variation 2.065° E

METAR

OMSJ 210500Z 17004KT CAVOK 31/18 Q1010

Decode

TAF

TAF OMSJ 202304Z 2100/2206 10005KT 8000 NSC PROB30 2100/2104 3000 HZ BECMG 2108/2110 35015KT BECMG 2115/2117 10005KT

Decode

Destination Runways

ID Width Length Bearing (true) Bearing (mag) Surface Threshold Offset Overrun Length
12 148 ft / 45 m 13,266 ft / 4,043 m 122.45° 120.39° Asphalt 689 ft / 210 m 488 ft / 149 m
30 148 ft / 45 m 13,266 ft / 4,043 m 302.47° 300.41° Asphalt 984 ft / 300 m 488 ft / 149 m

Approach Navaids

Runway Type Ident Frequency Range Bearing (true) Bearing (mag) Slope Elevation
30 Localiser ISJ 109.70 MHz 18 nm / 33 km 302.45° 300.38° - 111 ft / 34 m (AMSL)
30 Glidescope ISJ 109.70 MHz 10 nm / 19 km 302.46° 300.40° 3.00° 111 ft / 34 m (AMSL)

Popular Alternatives